createdAt,value
2018-05-11T00:00:31.561Z,99.90
2018-05-11T00:02:57.746Z,99.90
2018-05-11T00:05:24.037Z,99.90
2018-05-11T00:07:50.198Z,99.90
2018-05-11T00:10:16.389Z,99.90
2018-05-11T00:12:43.753Z,99.90
2018-05-11T00:15:11.050Z,99.90
2018-05-11T00:17:37.241Z,99.90
2018-05-11T00:20:03.422Z,99.90
2018-05-11T00:22:29.610Z,99.90
2018-05-11T00:24:55.801Z,99.90
2018-05-11T00:27:21.994Z,99.90
2018-05-11T00:29:48.190Z,99.90
2018-05-11T00:32:14.354Z,99.90
2018-05-11T00:34:40.568Z,99.90
2018-05-11T00:37:06.767Z,99.90
2018-05-11T00:39:32.929Z,99.90
2018-05-11T00:41:59.222Z,99.90
2018-05-11T00:44:25.394Z,99.90
2018-05-11T00:46:51.575Z,99.90
2018-05-11T00:49:17.738Z,99.90
2018-05-11T00:51:43.914Z,99.90
2018-05-11T00:54:11.208Z,99.90
2018-05-11T00:56:37.382Z,99.90
2018-05-11T00:59:03.571Z,99.90
2018-05-11T01:03:57.685Z,99.90
2018-05-11T01:06:24.975Z,99.90
2018-05-11T01:08:51.163Z,99.90
2018-05-11T01:11:17.391Z,99.90
2018-05-11T01:13:43.609Z,99.90
2018-05-11T01:16:09.823Z,99.90
2018-05-11T01:21:05.019Z,99.90
2018-05-11T01:23:31.227Z,99.90
2018-05-11T01:25:57.421Z,99.90
2018-05-11T01:28:23.647Z,99.90
2018-05-11T01:30:49.868Z,99.90
2018-05-11T01:33:16.045Z,99.90
2018-05-11T01:35:42.234Z,99.90
2018-05-11T01:38:08.406Z,99.90
2018-05-11T01:40:34.594Z,99.90
2018-05-11T01:43:01.882Z,99.90
2018-05-11T01:45:28.060Z,99.90
2018-05-11T01:47:54.277Z,99.90
2018-05-11T01:50:20.467Z,99.90
2018-05-11T01:52:46.650Z,99.90
2018-05-11T01:55:12.858Z,99.90
2018-05-11T01:57:40.163Z,99.90
2018-05-11T02:00:06.406Z,99.90
2018-05-11T02:02:32.583Z,99.90
2018-05-11T02:04:58.798Z,99.90
2018-05-11T02:07:24.963Z,99.90
2018-05-11T02:09:51.161Z,99.90
2018-05-11T02:12:17.341Z,99.90
2018-05-11T02:14:43.536Z,99.90
2018-05-11T02:17:09.730Z,99.90
2018-05-11T02:19:35.903Z,99.90
2018-05-11T02:22:02.066Z,99.90
2018-05-11T02:24:28.246Z,99.90
2018-05-11T02:26:54.403Z,99.90
2018-05-11T02:29:20.606Z,99.90
2018-05-11T02:31:46.773Z,99.90
2018-05-11T02:34:14.259Z,99.90
2018-05-11T02:36:40.470Z,99.90
2018-05-11T02:39:06.681Z,99.90
2018-05-11T02:41:32.914Z,99.90
2018-05-11T02:43:59.077Z,99.90
2018-05-11T02:46:25.374Z,99.90
2018-05-11T02:48:52.734Z,99.90
2018-05-11T02:51:20.025Z,99.90
2018-05-11T02:53:46.206Z,99.90
2018-05-11T02:56:12.392Z,99.90
2018-05-11T02:58:38.558Z,99.90
2018-05-11T03:01:04.750Z,99.90
2018-05-11T03:03:30.924Z,99.90
2018-05-11T03:05:57.115Z,99.90
2018-05-11T03:08:23.290Z,99.90
2018-05-11T03:10:50.594Z,99.90
2018-05-11T03:13:16.778Z,99.90
2018-05-11T03:15:42.963Z,99.90
2018-05-11T03:18:09.129Z,99.90
2018-05-11T03:20:35.310Z,99.90
2018-05-11T03:23:02.650Z,99.90
2018-05-11T03:25:28.807Z,99.90
2018-05-11T03:27:55.006Z,99.90
2018-05-11T03:30:21.167Z,99.90
2018-05-11T03:32:47.319Z,99.90
2018-05-11T03:35:13.496Z,99.90
2018-05-11T03:37:39.662Z,99.90
2018-05-11T03:40:05.851Z,99.90
2018-05-11T03:42:32.060Z,99.90
2018-05-11T03:44:58.238Z,99.90
2018-05-11T03:47:25.531Z,99.90
2018-05-11T03:49:51.781Z,99.90
2018-05-11T03:52:17.930Z,99.90
2018-05-11T03:54:44.098Z,99.90
2018-05-11T03:57:10.291Z,99.90
2018-05-11T03:59:36.470Z,99.90
2018-05-11T04:02:14.787Z,99.90
2018-05-11T04:04:53.150Z,99.90
2018-05-11T04:09:54.233Z,99.90
2018-05-11T04:12:20.409Z,99.90
2018-05-11T04:14:46.587Z,99.90
2018-05-11T04:17:12.796Z,99.90
2018-05-11T04:22:06.900Z,99.90
2018-05-11T04:24:33.070Z,99.90
2018-05-11T04:26:59.233Z,99.90
2018-05-11T04:29:25.447Z,99.90
2018-05-11T04:31:51.646Z,99.90
2018-05-11T04:34:17.819Z,99.90
2018-05-11T04:36:44.006Z,99.90
2018-05-11T04:39:10.178Z,99.90
2018-05-11T04:41:37.818Z,99.90
2018-05-11T04:44:04.029Z,99.90
2018-05-11T04:46:30.254Z,99.90
2018-05-11T04:48:56.470Z,99.90
2018-05-11T04:51:23.806Z,99.90
2018-05-11T04:53:49.980Z,99.90
2018-05-11T04:56:17.289Z,99.90
2018-05-11T04:58:43.479Z,99.90
2018-05-11T05:01:09.647Z,99.90
2018-05-11T05:03:35.822Z,99.90
2018-05-11T05:06:02.028Z,99.90
2018-05-11T05:08:28.201Z,99.90
2018-05-11T05:10:54.359Z,99.90
2018-05-11T05:13:20.559Z,99.90
2018-05-11T05:15:46.737Z,99.90
2018-05-11T05:18:12.914Z,99.90
2018-05-11T05:20:40.241Z,99.90
2018-05-11T05:23:06.446Z,99.90
2018-05-11T05:25:32.605Z,99.90
2018-05-11T05:27:58.805Z,99.90
2018-05-11T05:30:24.957Z,99.90
2018-05-11T05:32:51.130Z,99.90
2018-05-11T05:35:17.354Z,99.90
2018-05-11T05:37:43.510Z,99.90
2018-05-11T05:40:09.658Z,99.90
2018-05-11T05:42:35.855Z,99.90
2018-05-11T05:45:02.048Z,99.90
2018-05-11T05:47:28.209Z,99.90
2018-05-11T05:49:54.391Z,99.90
2018-05-11T05:52:20.566Z,99.90
2018-05-11T05:54:46.756Z,99.90
2018-05-11T05:57:12.965Z,99.90
2018-05-11T05:59:39.134Z,99.90
2018-05-11T06:02:05.295Z,99.90
2018-05-11T06:04:31.555Z,99.90
2018-05-11T06:06:58.990Z,99.90
2018-05-11T06:09:25.693Z,99.90
2018-05-11T06:11:51.907Z,99.90
2018-05-11T06:14:18.077Z,99.90
2018-05-11T06:16:44.469Z,99.90
2018-05-11T06:19:10.687Z,99.90
2018-05-11T06:21:38.071Z,99.90
2018-05-11T06:26:32.226Z,99.90
2018-05-11T06:28:58.464Z,99.90
2018-05-11T06:31:24.662Z,99.90
2018-05-11T06:33:52.067Z,99.90
2018-05-11T06:36:18.233Z,99.90
2018-05-11T06:38:44.465Z,99.90
2018-05-11T06:41:10.652Z,99.90
2018-05-11T06:43:37.946Z,99.90
2018-05-11T06:46:04.296Z,99.90
2018-05-11T06:48:30.426Z,99.90
2018-05-11T06:50:56.686Z,99.90
2018-05-11T06:53:22.878Z,99.90
2018-05-11T06:55:49.125Z,99.90
2018-05-11T06:58:16.431Z,99.90
2018-05-11T07:00:42.598Z,99.90
2018-05-11T07:03:08.986Z,99.90
2018-05-11T07:08:05.219Z,99.90
2018-05-11T07:10:34.449Z,99.90
2018-05-11T07:13:00.613Z,99.90
2018-05-11T07:17:54.884Z,99.90
2018-05-11T07:20:21.069Z,99.90
2018-05-11T07:22:48.481Z,99.90
2018-05-11T07:25:14.708Z,99.90
2018-05-11T07:27:40.867Z,99.90
2018-05-11T07:30:07.051Z,99.90
2018-05-11T07:32:33.601Z,99.90
2018-05-11T07:35:00.196Z,99.90
2018-05-11T07:37:26.348Z,99.90
2018-05-11T07:39:52.778Z,99.90
2018-05-11T07:42:18.991Z,99.90
2018-05-11T07:44:46.269Z,99.90
2018-05-11T07:47:12.492Z,99.90
2018-05-11T07:49:40.154Z,99.90
2018-05-11T07:52:06.323Z,99.90
2018-05-11T07:54:32.503Z,99.90
2018-05-11T07:56:58.670Z,99.90
2018-05-11T07:59:24.830Z,99.90
2018-05-11T08:01:52.134Z,99.90
2018-05-11T08:04:18.299Z,99.90
2018-05-11T08:06:44.656Z,99.90
2018-05-11T08:09:10.861Z,99.90
2018-05-11T08:11:37.026Z,99.90
2018-05-11T08:14:03.280Z,99.70
2018-05-11T08:16:30.633Z,98.90
2018-05-11T08:18:56.803Z,99.30
2018-05-11T08:21:24.265Z,98.30
2018-05-11T08:23:50.410Z,98.80
2018-05-11T08:26:16.589Z,98.60
2018-05-11T08:28:42.755Z,98.20
2018-05-11T08:31:08.967Z,98.20
2018-05-11T08:33:36.380Z,97.70
2018-05-11T08:36:02.561Z,97.60
2018-05-11T08:38:28.794Z,97.50
2018-05-11T08:40:54.984Z,97.60
2018-05-11T08:43:21.183Z,97.70
2018-05-11T08:45:47.470Z,97.50
2018-05-11T08:48:13.710Z,97.10
2018-05-11T08:50:39.890Z,96.70
2018-05-11T08:53:06.064Z,97.10
2018-05-11T08:55:32.325Z,96.80
2018-05-11T08:57:58.551Z,96.80
2018-05-11T09:00:24.771Z,96.40
2018-05-11T09:02:52.457Z,96.20
2018-05-11T09:05:19.729Z,95.60
2018-05-11T09:07:45.966Z,96.00
2018-05-11T09:10:12.195Z,95.90
2018-05-11T09:12:38.422Z,95.60
2018-05-11T09:15:05.751Z,94.60
2018-05-11T09:17:31.982Z,94.70
2018-05-11T09:19:58.185Z,94.80
2018-05-11T09:22:25.145Z,95.10
2018-05-11T09:24:52.419Z,94.10
2018-05-11T09:27:18.589Z,94.60
2018-05-11T09:29:44.806Z,94.40
2018-05-11T09:32:10.974Z,94.20
2018-05-11T09:34:37.139Z,94.10
2018-05-11T09:37:03.350Z,94.10
2018-05-11T09:39:29.642Z,94.10
2018-05-11T09:41:56.836Z,93.30
2018-05-11T09:44:23.066Z,93.40
2018-05-11T09:49:17.188Z,93.10
2018-05-11T09:51:43.381Z,93.10
2018-05-11T09:54:09.665Z,93.30
2018-05-11T09:56:35.874Z,93.60
2018-05-11T09:59:02.087Z,93.00
2018-05-11T10:01:28.252Z,92.80
2018-05-11T10:03:54.511Z,92.80
2018-05-11T10:06:21.949Z,92.30
2018-05-11T10:08:48.147Z,92.80
2018-05-11T10:11:14.363Z,93.30
2018-05-11T10:13:40.710Z,92.80
2018-05-11T10:16:06.963Z,91.90
2018-05-11T10:18:34.236Z,90.80
2018-05-11T10:21:00.439Z,91.00
2018-05-11T10:23:27.642Z,91.10
2018-05-11T10:25:54.330Z,91.20
2018-05-11T10:28:21.311Z,91.80
2018-05-11T10:30:48.455Z,91.70
2018-05-11T10:33:15.674Z,90.50
2018-05-11T10:35:43.212Z,89.90
2018-05-11T10:38:09.661Z,90.40
2018-05-11T10:40:36.299Z,90.10
2018-05-11T10:43:03.076Z,90.10
2018-05-11T10:48:00.723Z,89.90
2018-05-11T10:50:38.093Z,90.00
2018-05-11T10:53:05.998Z,88.40
2018-05-11T10:55:33.241Z,86.60
2018-05-11T10:58:00.447Z,87.30
2018-05-11T11:00:27.454Z,87.60
2018-05-11T11:02:54.409Z,86.10
2018-05-11T11:05:21.873Z,84.00
2018-05-11T11:07:49.449Z,85.10
2018-05-11T11:10:15.667Z,86.20
2018-05-11T11:12:41.883Z,86.80
2018-05-11T11:15:08.141Z,87.10
2018-05-11T11:17:34.354Z,85.70
2018-05-11T11:20:00.565Z,85.80
2018-05-11T11:22:27.856Z,82.70
2018-05-11T11:24:55.131Z,82.50
2018-05-11T11:27:21.396Z,83.30
2018-05-11T11:29:47.586Z,83.40
2018-05-11T11:32:13.837Z,83.00
2018-05-11T11:34:40.909Z,84.00
2018-05-11T11:37:07.182Z,84.40
2018-05-11T11:39:34.540Z,84.60
2018-05-11T11:42:00.989Z,84.50
2018-05-11T11:44:27.538Z,84.50
2018-05-11T11:46:54.008Z,82.90
2018-05-11T11:49:20.483Z,78.80
2018-05-11T11:51:46.850Z,76.70
2018-05-11T11:54:13.810Z,73.20
2018-05-11T11:56:40.963Z,70.00
2018-05-11T11:59:07.959Z,68.20
2018-05-11T12:01:34.203Z,69.10
2018-05-11T12:04:01.150Z,69.10
2018-05-11T12:06:27.802Z,67.60
2018-05-11T12:08:54.060Z,68.20
2018-05-11T12:11:21.419Z,73.40
2018-05-11T12:13:47.592Z,74.40
2018-05-11T12:16:13.779Z,76.10
2018-05-11T12:18:40.718Z,78.50
2018-05-11T12:21:07.635Z,80.70
2018-05-11T12:23:33.817Z,82.20
2018-05-11T12:26:01.131Z,82.90
2018-05-11T12:28:27.337Z,84.10
2018-05-11T12:30:54.265Z,85.50
2018-05-11T12:33:20.459Z,86.20
2018-05-11T12:35:46.670Z,87.20
2018-05-11T12:38:14.071Z,83.60
2018-05-11T12:40:40.256Z,84.20
2018-05-11T12:43:06.504Z,84.20
2018-05-11T12:45:33.446Z,84.30
2018-05-11T12:47:59.712Z,84.60
2018-05-11T12:50:27.014Z,84.90
2018-05-11T12:52:53.560Z,85.50
2018-05-11T12:55:21.303Z,87.50
2018-05-11T12:57:48.618Z,87.00
2018-05-11T13:00:14.810Z,88.00
2018-05-11T13:02:40.999Z,88.00
2018-05-11T13:05:07.371Z,88.50
2018-05-11T13:07:33.574Z,88.30
2018-05-11T13:09:59.842Z,87.10
2018-05-11T13:12:26.026Z,85.20
2018-05-11T13:14:53.332Z,82.60
2018-05-11T13:17:19.619Z,83.70
2018-05-11T13:19:45.819Z,85.30
2018-05-11T13:22:12.012Z,87.10
2018-05-11T13:24:38.315Z,87.50
2018-05-11T13:27:04.563Z,87.80
2018-05-11T13:29:30.758Z,88.00
2018-05-11T13:31:58.167Z,87.60
2018-05-11T13:34:24.354Z,88.80
2018-05-11T13:36:51.640Z,84.80
2018-05-11T13:39:18.943Z,84.00
2018-05-11T13:41:45.202Z,84.40
2018-05-11T13:44:11.429Z,85.00
2018-05-11T13:46:37.794Z,86.40
2018-05-11T13:49:04.009Z,87.50
2018-05-11T13:51:30.193Z,88.70
2018-05-11T13:53:57.158Z,88.10
2018-05-11T13:56:24.728Z,88.10
2018-05-11T13:58:50.921Z,88.50
2018-05-11T14:01:17.117Z,89.90
2018-05-11T14:03:44.449Z,90.60
2018-05-11T14:06:10.662Z,91.00
2018-05-11T14:08:36.924Z,90.70
2018-05-11T14:11:03.097Z,91.00
2018-05-11T14:13:30.395Z,90.20
2018-05-11T14:15:58.177Z,90.70
2018-05-11T14:18:25.868Z,90.70
2018-05-11T14:20:52.170Z,90.80
2018-05-11T14:23:18.367Z,90.60
2018-05-11T14:25:44.559Z,90.40
2018-05-11T14:28:11.502Z,90.10
2018-05-11T14:30:38.924Z,89.50
2018-05-11T14:33:05.158Z,90.10
2018-05-11T14:35:31.342Z,90.10
2018-05-11T14:37:57.518Z,89.50
2018-05-11T14:40:23.707Z,87.30
2018-05-11T14:42:49.930Z,85.70
2018-05-11T14:45:16.202Z,85.90
2018-05-11T14:47:42.509Z,85.70
2018-05-11T14:50:08.666Z,84.00
2018-05-11T14:52:35.178Z,84.50
2018-05-11T14:55:01.423Z,85.60
2018-05-11T14:57:27.590Z,86.40
2018-05-11T14:59:53.822Z,87.50
2018-05-11T15:02:20.026Z,88.30
2018-05-11T15:07:15.609Z,90.40
2018-05-11T15:09:41.867Z,90.30
2018-05-11T15:12:08.055Z,90.60
2018-05-11T15:14:35.379Z,90.10
2018-05-11T15:17:01.725Z,90.60
2018-05-11T15:19:28.104Z,90.20
2018-05-11T15:21:58.028Z,90.90
2018-05-11T15:24:24.719Z,91.10
2018-05-11T15:26:50.922Z,91.30
2018-05-11T15:29:17.236Z,91.20
2018-05-11T15:31:43.474Z,91.40
2018-05-11T15:34:09.674Z,91.70
2018-05-11T15:36:36.091Z,91.80
2018-05-11T15:39:03.458Z,91.50
2018-05-11T15:41:29.800Z,92.00
2018-05-11T15:43:57.480Z,92.10
2018-05-11T15:46:25.119Z,92.00
2018-05-11T15:48:51.311Z,92.50
2018-05-11T15:51:18.650Z,92.30
2018-05-11T15:53:44.891Z,92.80
2018-05-11T15:56:11.470Z,92.90
2018-05-11T15:58:37.851Z,92.90
2018-05-11T16:01:04.113Z,92.80
2018-05-11T16:03:30.628Z,92.70
2018-05-11T16:05:56.966Z,92.80
2018-05-11T16:08:23.223Z,92.90
2018-05-11T16:10:49.402Z,92.80
2018-05-11T16:13:15.590Z,93.20
2018-05-11T16:15:41.831Z,93.30
2018-05-11T16:18:08.005Z,93.30
2018-05-11T16:20:34.225Z,93.20
2018-05-11T16:23:00.406Z,92.90
2018-05-11T16:25:26.721Z,93.30
2018-05-11T16:27:52.933Z,93.20
2018-05-11T16:30:19.118Z,92.80
2018-05-11T16:32:45.291Z,93.00
2018-05-11T16:35:11.502Z,93.00
2018-05-11T16:37:37.722Z,93.20
2018-05-11T16:40:03.954Z,93.50
2018-05-11T16:42:30.136Z,93.80
2018-05-11T16:44:56.355Z,93.30
2018-05-11T16:47:22.532Z,93.60
2018-05-11T16:49:48.837Z,93.60
2018-05-11T16:52:15.008Z,94.00
2018-05-11T16:54:41.198Z,93.70
2018-05-11T16:57:07.379Z,93.80
2018-05-11T16:59:33.628Z,94.20
2018-05-11T17:01:59.808Z,94.20
2018-05-11T17:04:26.010Z,94.20
2018-05-11T17:06:52.227Z,94.20
2018-05-11T17:09:18.411Z,94.20
2018-05-11T17:11:45.744Z,93.80
2018-05-11T17:14:11.950Z,94.20
2018-05-11T17:16:38.159Z,94.20
2018-05-11T17:19:05.479Z,93.80
2018-05-11T17:21:31.726Z,94.20
2018-05-11T17:23:57.959Z,94.00
2018-05-11T17:26:24.170Z,94.10
2018-05-11T17:28:50.391Z,94.10
2018-05-11T17:31:16.611Z,94.30
2018-05-11T17:33:42.910Z,94.10
2018-05-11T17:36:09.115Z,94.30
2018-05-11T17:38:35.461Z,94.30
2018-05-11T17:41:01.929Z,94.60
2018-05-11T17:43:28.228Z,94.80
2018-05-11T17:45:54.557Z,94.90
2018-05-11T17:48:20.906Z,94.90
2018-05-11T17:50:47.090Z,95.10
2018-05-11T17:53:14.390Z,94.90
2018-05-11T17:55:40.599Z,95.40
2018-05-11T17:58:07.905Z,95.00
2018-05-11T18:00:34.106Z,95.10
2018-05-11T18:05:28.286Z,95.10
2018-05-11T18:07:54.478Z,95.30
2018-05-11T18:10:20.758Z,95.60
2018-05-11T18:12:47.986Z,95.70
2018-05-11T18:15:14.548Z,96.20
2018-05-11T18:17:42.106Z,96.10
2018-05-11T18:20:08.287Z,96.60
2018-05-11T18:22:34.558Z,96.70
2018-05-11T18:25:01.247Z,96.80
2018-05-11T18:27:27.889Z,97.00
2018-05-11T18:29:54.179Z,97.00
2018-05-11T18:32:20.496Z,97.20
2018-05-11T18:34:46.726Z,97.50
2018-05-11T18:37:12.956Z,97.90
2018-05-11T18:39:39.696Z,98.00
2018-05-11T18:42:06.135Z,98.10
2018-05-11T18:44:34.088Z,98.10
2018-05-11T18:47:00.520Z,98.40
2018-05-11T18:49:26.738Z,98.70
2018-05-11T18:51:53.004Z,98.40
2018-05-11T18:54:21.277Z,98.20
2018-05-11T18:56:50.041Z,98.70
2018-05-11T18:59:17.846Z,98.40
2018-05-11T19:01:45.786Z,98.50
2018-05-11T19:04:12.182Z,98.90
2018-05-11T19:06:39.078Z,98.90
2018-05-11T19:09:05.819Z,99.10
2018-05-11T19:14:01.043Z,99.10
2018-05-11T19:16:27.275Z,99.60
2018-05-11T19:18:53.534Z,99.90
2018-05-11T19:21:19.721Z,99.60
2018-05-11T19:23:47.038Z,99.80
2018-05-11T19:26:13.736Z,99.90
2018-05-11T19:28:40.641Z,99.90
2018-05-11T19:31:08.132Z,99.90
2018-05-11T19:33:34.621Z,99.90
2018-05-11T19:36:02.449Z,99.80
2018-05-11T19:38:29.061Z,99.90
2018-05-11T19:43:23.659Z,99.90
2018-05-11T19:45:49.975Z,99.90
2018-05-11T19:48:16.186Z,99.90
2018-05-11T19:50:45.592Z,99.90
2018-05-11T19:53:11.800Z,99.90
2018-05-11T19:55:38.320Z,99.90
2018-05-11T19:58:04.518Z,99.90
2018-05-11T20:00:31.841Z,99.90
2018-05-11T20:02:58.088Z,99.90
2018-05-11T20:05:24.270Z,99.90
2018-05-11T20:07:51.710Z,99.90
2018-05-11T20:10:17.895Z,99.90
2018-05-11T20:12:44.679Z,99.90
2018-05-11T20:15:11.297Z,99.90
2018-05-11T20:17:37.772Z,99.90
2018-05-11T20:20:04.007Z,99.90
2018-05-11T20:22:31.316Z,99.90
2018-05-11T20:24:57.531Z,99.90
2018-05-11T20:27:23.946Z,99.90
2018-05-11T20:29:50.206Z,99.90
2018-05-11T20:32:16.370Z,99.90
2018-05-11T20:34:43.774Z,99.90
2018-05-11T20:37:11.569Z,99.90
2018-05-11T20:39:37.834Z,99.90
2018-05-11T20:42:04.046Z,99.90
2018-05-11T20:47:00.403Z,99.90
2018-05-11T20:49:27.291Z,99.90
2018-05-11T20:51:54.127Z,99.90
2018-05-11T20:54:20.408Z,99.90
2018-05-11T20:56:47.067Z,99.90
2018-05-11T20:59:13.792Z,99.90
2018-05-11T21:01:40.035Z,99.90
2018-05-11T21:04:06.211Z,99.90
2018-05-11T21:06:32.817Z,99.90
2018-05-11T21:08:59.360Z,99.90
2018-05-11T21:11:25.587Z,99.90
2018-05-11T21:13:52.888Z,99.90
2018-05-11T21:16:19.407Z,99.90
2018-05-11T21:18:47.275Z,99.90
2018-05-11T21:21:13.483Z,99.90
2018-05-11T21:23:39.688Z,99.90
2018-05-11T21:26:05.886Z,99.90
2018-05-11T21:28:32.327Z,99.90
2018-05-11T21:30:58.518Z,99.90
2018-05-11T21:33:24.760Z,99.90
2018-05-11T21:35:50.948Z,99.90
2018-05-11T21:38:17.205Z,99.90
2018-05-11T21:40:43.402Z,99.90
2018-05-11T21:43:09.589Z,99.90
2018-05-11T21:45:35.880Z,99.90
2018-05-11T21:48:02.050Z,99.90
2018-05-11T21:50:28.234Z,99.90
2018-05-11T21:55:22.375Z,99.90
2018-05-11T21:57:48.578Z,99.90
2018-05-11T22:00:15.923Z,99.90
2018-05-11T22:02:42.130Z,99.90
2018-05-11T22:05:08.368Z,99.90
2018-05-11T22:07:34.554Z,99.90
2018-05-11T22:10:00.738Z,99.90
2018-05-11T22:12:26.930Z,99.90
2018-05-11T22:14:53.111Z,99.90
2018-05-11T22:17:19.314Z,99.90
2018-05-11T22:19:45.503Z,99.90
2018-05-11T22:22:11.664Z,99.90
2018-05-11T22:24:37.873Z,99.90
2018-05-11T22:29:31.987Z,99.90
2018-05-11T22:31:59.269Z,99.90
2018-05-11T22:34:25.466Z,99.90
2018-05-11T22:36:51.626Z,99.90
2018-05-11T22:39:18.918Z,99.90
2018-05-11T22:41:45.099Z,99.90
2018-05-11T22:44:11.331Z,99.90
2018-05-11T22:46:37.490Z,99.90
2018-05-11T22:49:03.703Z,99.90
2018-05-11T22:51:29.878Z,99.90
2018-05-11T22:53:56.071Z,99.90
2018-05-11T22:56:22.255Z,99.90
2018-05-11T22:58:48.420Z,99.90
2018-05-11T23:01:15.703Z,99.90
2018-05-11T23:03:41.970Z,99.90
2018-05-11T23:06:08.095Z,99.90
2018-05-11T23:08:34.266Z,99.90
2018-05-11T23:11:00.502Z,99.90
2018-05-11T23:13:26.716Z,99.90
2018-05-11T23:15:52.887Z,99.90
2018-05-11T23:18:19.159Z,99.90
2018-05-11T23:20:45.331Z,99.90
2018-05-11T23:23:11.489Z,99.90
2018-05-11T23:25:37.672Z,99.90
2018-05-11T23:28:03.953Z,99.90
2018-05-11T23:30:30.186Z,99.90
2018-05-11T23:35:24.282Z,99.90
2018-05-11T23:37:50.474Z,99.90
2018-05-11T23:40:16.679Z,99.90
2018-05-11T23:42:43.982Z,99.90
2018-05-11T23:45:10.167Z,99.90
2018-05-11T23:47:36.563Z,99.90
2018-05-11T23:50:02.765Z,99.90
2018-05-11T23:52:30.047Z,99.90
2018-05-11T23:57:24.122Z,99.90
2018-05-11T23:59:50.291Z,99.90
